createdAt,value
2023-09-04T00:00:38.471Z,10.90
2023-09-04T00:03:07.926Z,10.90
2023-09-04T00:05:37.738Z,11.10
2023-09-04T00:08:07.625Z,11.20
2023-09-04T00:10:37.493Z,11.30
2023-09-04T00:13:08.071Z,11.50
2023-09-04T00:15:37.522Z,11.50
2023-09-04T00:18:07.354Z,11.70
2023-09-04T00:20:36.814Z,11.80
2023-09-04T00:23:06.383Z,11.90
2023-09-04T00:25:35.899Z,12.20
2023-09-04T00:28:06.377Z,12.30
2023-09-04T00:30:35.864Z,12.30
2023-09-04T00:33:05.552Z,12.50
2023-09-04T00:35:35.090Z,12.60
2023-09-04T00:38:04.647Z,12.80
2023-09-04T00:40:34.102Z,12.80
2023-09-04T00:43:03.590Z,12.90
2023-09-04T00:45:33.268Z,12.90
2023-09-04T00:48:02.822Z,13.10
2023-09-04T00:50:33.244Z,13.30
2023-09-04T00:53:04.678Z,13.50
2023-09-04T00:55:34.878Z,13.60
2023-09-04T00:58:06.485Z,13.80
2023-09-04T01:00:36.058Z,13.90
2023-09-04T01:03:05.988Z,14.10
2023-09-04T06:21:41.298Z,20.30
2023-09-04T06:24:10.769Z,20.30
2023-09-04T06:26:40.223Z,20.30
2023-09-04T06:29:09.794Z,20.20
2023-09-04T06:31:39.315Z,20.20
2023-09-04T06:34:08.776Z,20.20
2023-09-04T06:36:38.674Z,20.20
2023-09-04T06:39:09.014Z,20.10
2023-09-04T06:41:38.491Z,20.00
2023-09-04T06:44:08.272Z,19.90
2023-09-04T06:46:37.797Z,19.90
2023-09-04T06:49:07.681Z,19.80
2023-09-04T06:51:37.273Z,19.70
2023-09-04T06:54:07.438Z,19.70
2023-09-04T06:56:36.970Z,19.60
2023-09-04T06:59:07.476Z,19.50
2023-09-04T07:01:37.102Z,19.50
2023-09-04T07:04:07.104Z,19.40
2023-09-04T07:06:36.550Z,19.30
2023-09-04T07:09:06.160Z,19.20
2023-09-04T07:11:35.650Z,19.00
2023-09-04T07:14:05.629Z,18.90
2023-09-04T07:16:44.525Z,18.80
2023-09-04T07:19:16.601Z,18.70
2023-09-04T07:21:46.800Z,18.60
2023-09-04T07:24:16.764Z,18.40
2023-09-04T07:26:49.220Z,18.30
2023-09-04T07:29:23.140Z,18.20
2023-09-04T07:31:52.739Z,18.10
2023-09-04T07:34:22.233Z,18.00
2023-09-04T07:36:51.747Z,17.90
2023-09-04T07:39:21.314Z,17.80
2023-09-04T07:41:51.201Z,17.70
2023-09-04T07:44:20.793Z,17.60
2023-09-04T07:46:52.818Z,17.50
2023-09-04T07:49:24.593Z,17.40
2023-09-04T07:51:55.994Z,17.30
2023-09-04T07:54:26.069Z,17.20
2023-09-04T07:56:56.672Z,17.10
2023-09-04T07:59:26.123Z,16.90
2023-09-04T08:01:56.041Z,16.80
2023-09-04T08:04:26.150Z,16.80
2023-09-04T08:06:56.026Z,16.70
2023-09-04T08:09:26.224Z,16.60
2023-09-04T08:11:55.706Z,16.40
2023-09-04T08:14:25.199Z,16.30
2023-09-04T08:16:54.687Z,16.30
2023-09-04T08:19:24.152Z,16.20
2023-09-04T08:21:54.071Z,16.10
2023-09-04T08:24:26.330Z,16.00
2023-09-04T08:26:56.104Z,15.80
2023-09-04T08:29:26.111Z,15.80
2023-09-04T08:31:56.000Z,15.60
2023-09-04T08:34:25.486Z,15.60
2023-09-04T08:36:55.077Z,15.50
2023-09-04T08:39:24.576Z,15.50
2023-09-04T08:41:54.566Z,15.50
2023-09-04T08:44:24.650Z,15.30
2023-09-04T08:46:54.890Z,15.30
2023-09-04T08:49:25.953Z,15.30
2023-09-04T08:51:56.222Z,15.30
2023-09-04T08:54:28.645Z,15.20
2023-09-04T08:56:58.544Z,15.30
2023-09-04T08:59:28.121Z,15.20
2023-09-04T09:01:59.583Z,15.20
2023-09-04T09:04:29.582Z,15.10
2023-09-04T09:06:59.463Z,15.10
2023-09-04T09:09:29.823Z,15.10
2023-09-04T09:11:59.328Z,15.10
2023-09-04T09:14:32.503Z,15.00
2023-09-04T09:17:08.594Z,15.00
2023-09-04T09:19:39.526Z,15.00
2023-09-04T09:22:13.315Z,14.90
2023-09-04T09:25:09.068Z,14.90
2023-09-04T09:27:38.748Z,14.90
2023-09-04T09:30:08.546Z,14.80
2023-09-04T09:32:38.944Z,14.80
2023-09-04T09:35:08.566Z,14.80
2023-09-04T09:37:38.491Z,14.80
2023-09-04T09:40:12.451Z,14.70
2023-09-04T09:42:44.431Z,14.60
2023-09-04T09:45:15.212Z,14.50
2023-09-04T09:47:45.491Z,14.40
2023-09-04T09:50:17.794Z,14.30
2023-09-04T09:53:01.467Z,14.30
2023-09-04T09:55:33.586Z,14.30
2023-09-04T09:58:04.506Z,14.20
2023-09-04T10:00:36.762Z,14.10
2023-09-04T10:03:06.571Z,14.00
2023-09-04T10:05:37.297Z,13.90
2023-09-04T10:08:08.821Z,13.90
2023-09-04T10:10:40.296Z,13.90
2023-09-04T10:13:20.155Z,13.90
2023-09-04T10:15:53.956Z,13.90
2023-09-04T10:18:31.775Z,13.90
2023-09-04T10:21:02.813Z,13.90
2023-09-04T10:23:44.508Z,13.80
2023-09-04T10:26:39.246Z,13.80
2023-09-04T10:29:14.023Z,13.80
2023-09-04T10:31:43.792Z,13.80
2023-09-04T10:34:14.762Z,13.80
2023-09-04T10:36:44.979Z,13.70
2023-09-04T10:39:14.628Z,13.70
2023-09-04T10:41:44.514Z,13.70
2023-09-04T10:44:15.770Z,13.60
2023-09-04T10:46:58.708Z,13.60
2023-09-04T10:49:35.143Z,13.60
2023-09-04T10:52:05.333Z,13.50
2023-09-04T10:54:34.826Z,13.50
2023-09-04T10:57:08.653Z,13.40
2023-09-04T11:00:04.791Z,13.40
2023-09-04T11:02:36.095Z,13.40
2023-09-04T11:05:06.346Z,13.30
2023-09-04T11:07:39.734Z,13.30
2023-09-04T11:10:20.968Z,13.30
2023-09-04T11:12:50.513Z,13.30
2023-09-04T11:15:20.589Z,13.30
2023-09-04T11:17:53.267Z,13.20
2023-09-04T11:20:28.742Z,13.20
2023-09-04T11:22:59.488Z,13.20
2023-09-04T11:25:29.024Z,13.20
2023-09-04T11:27:58.891Z,13.20
2023-09-04T11:30:30.687Z,13.10
2023-09-04T11:33:02.517Z,13.10
2023-09-04T11:35:33.659Z,13.10
2023-09-04T11:38:04.175Z,13.00
2023-09-04T11:40:37.865Z,13.10
2023-09-04T11:43:09.104Z,13.10
2023-09-04T11:45:38.786Z,13.00
2023-09-04T11:48:08.907Z,13.10
2023-09-04T11:50:40.151Z,13.00
2023-09-04T11:53:10.269Z,13.00
2023-09-04T11:55:40.859Z,13.00
2023-09-04T11:58:10.308Z,12.90
2023-09-04T12:00:39.949Z,12.90
2023-09-04T12:03:09.945Z,12.80
2023-09-04T12:05:39.644Z,12.80
2023-09-04T12:08:09.191Z,12.80
2023-09-04T12:10:40.396Z,12.90
2023-09-04T12:13:09.946Z,12.90
2023-09-04T12:15:41.052Z,12.90
2023-09-04T12:18:11.393Z,12.90
2023-09-04T12:20:43.031Z,13.00
2023-09-04T12:23:13.171Z,13.00
2023-09-04T12:25:43.998Z,13.20
2023-09-04T12:28:19.972Z,13.30
2023-09-04T12:30:50.694Z,13.30
2023-09-04T12:33:20.247Z,13.30
2023-09-04T12:36:00.163Z,13.30
2023-09-04T12:38:29.714Z,13.30
2023-09-04T12:41:00.963Z,13.10
2023-09-04T12:43:31.530Z,13.20
2023-09-04T12:46:02.299Z,13.20
2023-09-04T12:48:32.212Z,13.20
2023-09-04T12:51:03.210Z,13.20
2023-09-04T12:53:33.093Z,13.20
2023-09-04T12:56:02.610Z,13.10
2023-09-04T12:58:32.480Z,13.10
2023-09-04T13:01:02.402Z,13.10
2023-09-04T13:03:32.367Z,13.00
2023-09-04T13:06:02.260Z,12.90
2023-09-04T13:08:32.967Z,12.90
2023-09-04T13:11:02.972Z,12.90
2023-09-04T13:13:32.907Z,12.90
2023-09-04T13:16:02.805Z,12.90
2023-09-04T13:18:32.702Z,13.00
2023-09-04T13:21:03.300Z,13.00
2023-09-04T13:23:33.292Z,13.20
2023-09-04T13:26:03.145Z,13.20
2023-09-04T13:28:33.078Z,13.30
2023-09-04T13:31:03.963Z,13.30
2023-09-04T13:33:33.610Z,13.40
2023-09-04T13:36:03.073Z,13.40
2023-09-04T13:38:32.715Z,13.40
2023-09-04T13:41:02.599Z,13.50
2023-09-04T13:43:32.064Z,13.40
2023-09-04T13:46:01.595Z,13.40
2023-09-04T13:48:34.242Z,13.40
2023-09-04T13:51:05.096Z,13.40
2023-09-04T13:53:35.595Z,13.40
2023-09-04T13:56:07.248Z,13.30
2023-09-04T13:58:36.748Z,13.40
2023-09-04T14:01:06.484Z,13.30
2023-09-04T14:03:36.116Z,13.30
2023-09-04T14:06:06.134Z,13.30
2023-09-04T14:08:36.122Z,13.30
2023-09-04T14:11:05.857Z,13.20
2023-09-04T14:13:35.380Z,13.20
2023-09-04T14:16:06.453Z,13.30
2023-09-04T14:18:35.915Z,13.30
2023-09-04T14:21:05.862Z,13.30
2023-09-04T14:23:35.527Z,13.30
2023-09-04T14:26:08.058Z,13.30
2023-09-04T14:28:38.417Z,13.30
2023-09-04T14:31:15.307Z,13.40
2023-09-04T14:33:44.816Z,13.40
2023-09-04T14:36:14.274Z,13.40
2023-09-04T14:38:43.746Z,13.40
2023-09-04T14:41:16.700Z,13.40
2023-09-04T14:43:46.510Z,13.40
2023-09-04T14:46:16.059Z,13.40
2023-09-04T14:48:45.622Z,13.40
2023-09-04T14:51:15.086Z,13.40
2023-09-04T14:53:45.208Z,13.30
2023-09-04T14:56:14.792Z,13.30
2023-09-04T14:58:44.722Z,13.20
2023-09-04T15:01:17.848Z,13.10
2023-09-04T15:03:48.119Z,13.00
2023-09-04T15:06:18.109Z,12.90
2023-09-04T15:08:47.761Z,13.00
2023-09-04T15:11:19.769Z,12.90
2023-09-04T15:13:49.775Z,12.80
2023-09-04T15:16:19.402Z,12.80
2023-09-04T15:18:48.993Z,12.80
2023-09-04T15:21:19.280Z,12.80
2023-09-04T15:23:48.732Z,12.80
2023-09-04T15:26:18.641Z,12.70
2023-09-04T15:28:48.167Z,12.70
2023-09-04T15:31:17.719Z,12.70
2023-09-04T15:33:48.477Z,12.80
2023-09-04T15:36:19.101Z,12.80
2023-09-04T15:38:48.655Z,12.80
2023-09-04T15:41:18.519Z,12.80
2023-09-04T15:43:48.166Z,12.80
2023-09-04T15:46:18.147Z,12.80
2023-09-04T15:48:48.885Z,12.80
2023-09-04T15:51:18.602Z,12.80
2023-09-04T15:53:48.520Z,12.80
2023-09-04T15:56:18.714Z,12.80
2023-09-04T15:58:48.175Z,12.80
2023-09-04T16:01:17.675Z,12.70
2023-09-04T16:03:47.615Z,12.70
2023-09-04T16:06:17.118Z,12.70
2023-09-04T16:08:46.597Z,12.60
2023-09-04T18:00:24.434Z,11.20
2023-09-04T18:02:54.470Z,11.10
2023-09-04T18:05:24.160Z,11.10
2023-09-04T18:07:54.881Z,11.10
2023-09-04T18:10:24.483Z,11.10
2023-09-04T18:12:53.934Z,11.20
2023-09-04T18:15:26.738Z,11.10
2023-09-04T18:17:56.244Z,11.10
2023-09-04T18:20:25.777Z,11.10
2023-09-04T18:22:55.376Z,11.10
2023-09-04T18:25:24.940Z,11.10
2023-09-04T18:27:54.385Z,11.10
2023-09-04T18:30:23.963Z,11.10
2023-09-04T18:32:53.921Z,11.10
2023-09-04T18:35:28.253Z,11.10
2023-09-04T18:37:59.339Z,11.20
2023-09-04T18:40:28.920Z,11.20
2023-09-04T18:42:58.385Z,11.20
2023-09-04T18:45:28.294Z,11.20
2023-09-04T18:47:58.261Z,11.10
2023-09-04T18:50:27.803Z,11.10
2023-09-04T18:52:57.320Z,11.20
2023-09-04T18:55:27.331Z,11.20
2023-09-04T18:57:57.275Z,11.20
2023-09-04T19:00:27.134Z,11.30
2023-09-04T19:02:57.122Z,11.30
2023-09-04T19:05:27.058Z,11.30
2023-09-04T19:07:56.608Z,11.30
2023-09-04T19:10:26.065Z,11.30
2023-09-04T19:12:56.050Z,11.30
2023-09-04T19:15:26.084Z,11.20
2023-09-04T19:17:55.686Z,11.20
2023-09-04T19:20:25.631Z,11.20
2023-09-04T19:22:55.074Z,11.20
2023-09-04T19:25:24.555Z,11.10
2023-09-04T19:27:55.769Z,11.10
2023-09-04T19:30:28.300Z,10.90
2023-09-04T19:32:59.459Z,10.80
2023-09-04T19:35:29.020Z,10.80
2023-09-04T19:37:59.625Z,10.80
2023-09-04T19:40:29.148Z,10.70
2023-09-04T19:43:00.623Z,10.50
2023-09-04T19:45:30.473Z,10.50
2023-09-04T19:48:00.031Z,10.50
2023-09-04T19:50:29.616Z,10.50
2023-09-04T19:52:59.209Z,10.50
2023-09-04T19:55:29.207Z,10.50
2023-09-04T19:58:01.171Z,10.50
2023-09-04T20:00:30.880Z,10.40
2023-09-04T20:03:00.459Z,10.40
2023-09-04T20:05:30.265Z,10.40
2023-09-04T20:07:59.742Z,10.40
2023-09-04T20:10:29.221Z,10.40
2023-09-04T20:12:58.739Z,10.30
2023-09-04T20:15:28.275Z,10.30
2023-09-04T20:17:58.836Z,10.30
2023-09-04T20:20:28.402Z,10.40
2023-09-04T20:22:57.879Z,10.40
2023-09-04T20:25:27.804Z,10.40
2023-09-04T20:27:57.290Z,10.40
2023-09-04T20:30:27.740Z,10.40
2023-09-04T20:32:57.888Z,10.40
2023-09-04T20:35:27.371Z,10.40
2023-09-04T20:37:58.154Z,10.40
2023-09-04T20:40:27.969Z,10.40
2023-09-04T20:42:57.627Z,10.30
2023-09-04T20:45:27.161Z,10.40
2023-09-04T20:47:56.655Z,10.40
2023-09-04T20:50:26.694Z,10.40
2023-09-04T20:52:56.152Z,10.40
2023-09-04T20:55:26.081Z,10.40
2023-09-04T20:57:56.661Z,10.40
2023-09-04T21:00:26.585Z,10.40
2023-09-04T21:02:56.626Z,10.40
2023-09-04T21:05:26.529Z,10.30
2023-09-04T21:07:55.669Z,10.30
2023-09-04T21:10:25.270Z,10.30
2023-09-04T21:13:12.949Z,10.30
2023-09-04T21:16:00.491Z,10.40
2023-09-04T21:18:48.061Z,10.30
2023-09-04T21:21:35.842Z,10.30
2023-09-04T21:24:23.557Z,10.30
2023-09-04T21:27:11.148Z,10.40
2023-09-04T21:29:58.361Z,10.40
2023-09-04T21:32:46.034Z,10.40
2023-09-04T21:35:33.381Z,10.50
2023-09-04T21:38:21.377Z,10.50
2023-09-04T21:41:10.648Z,10.50
2023-09-04T21:43:58.796Z,10.60
2023-09-04T21:46:46.142Z,10.70
2023-09-04T21:49:33.697Z,10.70
2023-09-04T21:52:21.073Z,10.80
2023-09-04T21:55:09.261Z,10.80
2023-09-04T21:57:57.083Z,10.90
2023-09-04T22:00:44.731Z,11.00
2023-09-04T22:03:32.584Z,11.00
2023-09-04T22:06:24.027Z,11.10
2023-09-04T22:09:11.855Z,11.20
2023-09-04T22:11:59.167Z,11.30
2023-09-04T22:14:46.443Z,11.30
2023-09-04T22:17:34.070Z,11.40
2023-09-04T22:20:21.683Z,11.50
2023-09-04T22:23:09.404Z,11.60
2023-09-04T22:25:58.626Z,11.60
2023-09-04T22:28:46.380Z,11.80
2023-09-04T22:31:33.697Z,11.80
2023-09-04T22:34:21.338Z,12.00
2023-09-04T22:37:08.617Z,12.10
2023-09-04T22:39:58.206Z,12.20
2023-09-04T22:42:45.552Z,12.30
2023-09-04T22:45:33.088Z,12.30
2023-09-04T22:48:22.442Z,12.40
2023-09-04T22:51:09.949Z,12.50
2023-09-04T22:53:57.938Z,12.60
2023-09-04T22:56:45.541Z,12.70
2023-09-04T22:59:33.070Z,12.70
2023-09-04T23:02:20.701Z,12.80
2023-09-04T23:05:08.261Z,12.90
2023-09-04T23:07:55.679Z,13.00
2023-09-04T23:10:43.204Z,13.10
2023-09-04T23:13:31.504Z,13.30
2023-09-04T23:16:20.351Z,13.40
2023-09-04T23:19:07.582Z,13.50
2023-09-04T23:21:37.175Z,13.60
2023-09-04T23:24:09.795Z,13.70
2023-09-04T23:26:43.479Z,13.60
2023-09-04T23:29:18.803Z,13.70
2023-09-04T23:31:50.687Z,13.70
2023-09-04T23:34:35.409Z,13.70
2023-09-04T23:37:10.788Z,13.70
